createdAt,value
2017-09-18T00:02:13.657Z,83.81
2017-09-18T00:04:41.459Z,84.84
2017-09-18T00:07:08.618Z,83.61
2017-09-18T00:09:36.262Z,83.88
2017-09-18T00:12:03.406Z,86.09
2017-09-18T00:14:30.517Z,86.82
2017-09-18T00:16:58.262Z,84.88
2017-09-18T00:19:25.323Z,84.68
2017-09-18T00:21:56.060Z,86.20
2017-09-18T00:24:23.078Z,86.63
2017-09-18T00:26:50.790Z,86.52
2017-09-18T00:29:17.618Z,85.22
2017-09-18T00:31:45.652Z,88.01
2017-09-18T00:34:13.370Z,88.64
2017-09-18T00:36:40.327Z,85.83
2017-09-18T00:39:07.174Z,84.43
2017-09-18T00:41:34.189Z,86.96
2017-09-18T00:44:01.529Z,88.18
2017-09-18T00:46:29.391Z,88.52
2017-09-18T00:49:01.073Z,86.39
2017-09-18T00:51:28.199Z,87.29
2017-09-18T00:53:56.487Z,88.03
2017-09-18T00:56:28.976Z,89.28
2017-09-18T00:58:58.647Z,89.98
2017-09-18T01:01:25.967Z,89.51
2017-09-18T01:04:01.025Z,89.70
2017-09-18T01:06:31.852Z,90.11
2017-09-18T01:08:58.770Z,90.09
2017-09-18T01:11:25.670Z,90.70
2017-09-18T01:13:52.774Z,90.30
2017-09-18T01:16:26.594Z,90.38
2017-09-18T01:18:53.853Z,90.22
2017-09-18T01:21:21.502Z,89.48
2017-09-18T01:23:52.704Z,87.27
2017-09-18T01:26:20.518Z,84.55
2017-09-18T01:28:47.606Z,85.63
2017-09-18T01:31:14.509Z,86.47
2017-09-18T01:33:42.150Z,88.04
2017-09-18T01:36:16.009Z,87.92
2017-09-18T01:38:48.690Z,89.29
2017-09-18T01:41:16.601Z,89.84
2017-09-18T01:43:44.045Z,90.23
2017-09-18T01:46:18.011Z,90.10
2017-09-18T01:48:48.075Z,90.32
2017-09-18T01:51:15.101Z,90.54
2017-09-18T01:53:42.051Z,91.58
2017-09-18T01:56:14.107Z,90.30
2017-09-18T01:58:41.210Z,90.57
2017-09-18T02:01:08.869Z,88.89
2017-09-18T02:03:36.769Z,88.48
2017-09-18T02:06:09.701Z,86.91
2017-09-18T02:08:37.446Z,86.48
2017-09-18T02:11:07.599Z,89.50
2017-09-18T02:13:35.696Z,90.24
2017-09-18T02:16:03.001Z,89.37
2017-09-18T02:18:29.819Z,89.62
2017-09-18T02:21:02.798Z,91.34
2017-09-18T02:23:29.869Z,90.09
2017-09-18T02:25:57.506Z,89.28
2017-09-18T02:28:25.470Z,88.74
2017-09-18T02:30:55.617Z,89.63
2017-09-18T02:33:22.520Z,88.35
2017-09-18T02:35:54.655Z,90.25
2017-09-18T02:38:21.563Z,91.14
2017-09-18T02:40:54.250Z,91.12
2017-09-18T02:43:22.076Z,88.84
2017-09-18T02:45:54.536Z,89.33
2017-09-18T02:48:26.783Z,91.46
2017-09-18T02:50:58.929Z,91.61
2017-09-18T02:53:25.878Z,91.95
2017-09-18T02:55:53.514Z,92.53
2017-09-18T02:58:20.396Z,92.07
2017-09-18T03:00:53.430Z,91.95
2017-09-18T03:03:26.286Z,92.67
2017-09-18T03:05:54.143Z,91.81
2017-09-18T03:08:22.267Z,93.33
2017-09-18T03:10:49.373Z,92.84
2017-09-18T03:13:21.457Z,90.29
2017-09-18T03:15:49.368Z,91.44
2017-09-18T03:18:16.282Z,91.48
2017-09-18T03:20:48.407Z,91.06
2017-09-18T03:23:15.661Z,92.00
2017-09-18T03:25:43.419Z,89.99
2017-09-18T03:28:11.321Z,91.08
2017-09-18T03:30:45.323Z,90.21
2017-09-18T03:33:13.020Z,91.27
2017-09-18T03:35:40.622Z,89.01
2017-09-18T03:38:07.542Z,91.46
2017-09-18T03:40:35.630Z,92.37
2017-09-18T03:43:07.682Z,91.76
2017-09-18T03:45:34.977Z,91.35
2017-09-18T03:48:07.422Z,91.90
2017-09-18T03:50:39.757Z,91.64
2017-09-18T03:53:07.499Z,91.79
2017-09-18T03:55:35.219Z,92.43
2017-09-18T03:58:07.318Z,92.30
2017-09-18T04:00:40.045Z,90.23
2017-09-18T04:03:06.958Z,92.20
2017-09-18T04:05:39.539Z,93.30
2017-09-18T04:08:07.903Z,93.56
2017-09-18T04:10:35.885Z,92.49
2017-09-18T04:13:08.063Z,88.62
2017-09-18T04:15:36.315Z,91.90
2017-09-18T04:18:03.493Z,93.70
2017-09-18T04:20:35.458Z,92.16
2017-09-18T04:23:05.501Z,90.29
2017-09-18T04:25:33.443Z,88.93
2017-09-18T04:28:00.425Z,87.63
2017-09-18T04:30:32.751Z,87.17
2017-09-18T04:33:03.409Z,87.18
2017-09-18T04:35:35.698Z,86.98
2017-09-18T04:38:03.063Z,90.75
2017-09-18T04:40:30.955Z,90.94
2017-09-18T04:42:58.705Z,92.06
2017-09-18T04:45:30.840Z,92.15
2017-09-18T04:47:58.011Z,91.46
2017-09-18T04:50:25.002Z,91.57
2017-09-18T04:52:58.157Z,89.92
2017-09-18T04:55:30.341Z,89.80
2017-09-18T04:57:57.343Z,92.95
2017-09-18T05:00:24.239Z,92.91
2017-09-18T05:02:54.550Z,92.91
2017-09-18T05:05:22.267Z,92.41
2017-09-18T05:07:50.651Z,90.97
2017-09-18T05:10:18.569Z,92.27
2017-09-18T05:12:45.483Z,90.83
2017-09-18T05:15:17.897Z,89.84
2017-09-18T05:17:45.802Z,89.81
2017-09-18T05:20:12.810Z,88.12
2017-09-18T05:22:40.090Z,87.46
2017-09-18T05:25:06.980Z,87.92
2017-09-18T05:27:35.398Z,89.00
2017-09-18T05:30:07.389Z,89.92
2017-09-18T05:32:35.063Z,91.62
2017-09-18T05:35:01.999Z,91.97
2017-09-18T05:37:32.067Z,90.86
2017-09-18T05:39:59.351Z,87.63
2017-09-18T05:42:26.326Z,88.24
2017-09-18T05:44:54.247Z,87.91
2017-09-18T05:47:21.345Z,88.65
2017-09-18T05:49:48.266Z,87.53
2017-09-18T05:52:15.158Z,89.59
2017-09-18T05:54:47.731Z,90.49
2017-09-18T05:57:14.659Z,88.01
2017-09-18T05:59:42.908Z,89.66
2017-09-18T06:02:09.731Z,88.34
2017-09-18T06:04:37.054Z,88.78
2017-09-18T06:07:03.902Z,87.35
2017-09-18T06:09:30.690Z,87.95
2017-09-18T06:11:59.617Z,86.05
2017-09-18T06:14:26.588Z,86.71
2017-09-18T06:16:53.591Z,87.33
2017-09-18T06:19:21.697Z,88.06
2017-09-18T06:21:49.138Z,87.56
2017-09-18T06:24:16.410Z,87.16
2017-09-18T06:26:43.310Z,85.72
2017-09-18T06:29:13.137Z,85.68
2017-09-18T06:31:40.158Z,85.94
2017-09-18T06:34:12.690Z,86.52
2017-09-18T06:36:39.682Z,86.28
2017-09-18T06:39:11.978Z,85.33
2017-09-18T06:41:38.819Z,86.85
2017-09-18T06:44:05.751Z,85.81
2017-09-18T06:46:33.553Z,86.03
2017-09-18T06:49:00.440Z,86.78
2017-09-18T06:51:27.448Z,85.21
2017-09-18T06:54:00.419Z,87.49
2017-09-18T06:56:27.899Z,85.87
2017-09-18T06:58:57.910Z,86.70
2017-09-18T07:01:25.127Z,87.56
2017-09-18T07:03:52.937Z,86.67
2017-09-18T07:06:23.277Z,85.11
2017-09-18T07:08:55.400Z,85.34
2017-09-18T07:11:26.419Z,85.20
2017-09-18T07:13:57.485Z,85.34
2017-09-18T07:16:24.806Z,85.77
2017-09-18T07:18:57.051Z,85.05
2017-09-18T07:21:24.873Z,85.99
2017-09-18T07:23:52.472Z,85.16
2017-09-18T07:26:25.894Z,85.91
2017-09-18T07:28:57.006Z,86.16
2017-09-18T07:31:23.945Z,85.90
2017-09-18T07:33:50.812Z,86.05
2017-09-18T07:36:17.832Z,87.23
2017-09-18T07:38:45.611Z,85.27
2017-09-18T07:41:18.899Z,86.65
2017-09-18T07:43:46.749Z,85.67
2017-09-18T07:46:13.729Z,86.55
2017-09-18T07:48:40.722Z,85.98
2017-09-18T07:51:14.166Z,84.79
2017-09-18T07:53:44.405Z,85.48
2017-09-18T07:56:11.301Z,84.58
2017-09-18T07:58:38.200Z,84.27
2017-09-18T08:01:10.552Z,84.51
2017-09-18T08:03:38.100Z,83.95
2017-09-18T08:06:05.458Z,84.38
2017-09-18T08:08:33.691Z,84.48
2017-09-18T08:11:00.761Z,83.62
2017-09-18T08:13:28.175Z,84.13
2017-09-18T08:15:55.342Z,83.44
2017-09-18T08:18:25.430Z,83.76
2017-09-18T08:20:52.686Z,84.26
2017-09-18T08:23:25.066Z,84.42
2017-09-18T08:25:53.326Z,83.38
2017-09-18T08:28:20.634Z,82.82
2017-09-18T08:30:47.786Z,82.82
2017-09-18T08:33:14.889Z,82.47
2017-09-18T08:35:47.057Z,82.31
2017-09-18T08:38:15.058Z,83.96
2017-09-18T08:40:41.954Z,83.34
2017-09-18T08:43:10.394Z,82.99
2017-09-18T08:45:38.127Z,83.55
2017-09-18T08:48:05.976Z,82.44
2017-09-18T08:50:38.409Z,82.10
2017-09-18T08:53:08.333Z,81.81
2017-09-18T08:55:36.259Z,82.14
2017-09-18T08:58:03.772Z,82.55
2017-09-18T09:00:30.736Z,81.80
2017-09-18T09:02:59.067Z,81.64
2017-09-18T09:05:27.041Z,81.78
2017-09-18T09:07:59.171Z,82.19
2017-09-18T09:10:32.911Z,82.78
2017-09-18T09:13:00.670Z,82.40
2017-09-18T09:15:27.742Z,82.30
2017-09-18T09:18:00.615Z,81.95
2017-09-18T09:20:28.367Z,82.77
2017-09-18T09:22:55.330Z,81.88
2017-09-18T09:25:24.786Z,82.39
2017-09-18T09:27:53.521Z,82.64
2017-09-18T09:30:25.523Z,81.93
2017-09-18T09:32:59.904Z,81.20
2017-09-18T09:35:28.430Z,81.97
2017-09-18T09:37:55.373Z,81.64
2017-09-18T09:40:22.255Z,82.22
2017-09-18T09:42:49.483Z,82.22
2017-09-18T09:45:17.051Z,82.42
2017-09-18T09:47:49.625Z,81.14
2017-09-18T09:50:22.686Z,81.03
2017-09-18T09:52:49.702Z,80.75
2017-09-18T09:55:21.968Z,80.42
2017-09-18T09:57:49.810Z,81.64
2017-09-18T10:00:17.487Z,80.24
2017-09-18T10:02:45.300Z,80.52
2017-09-18T10:05:12.169Z,79.95
2017-09-18T10:07:40.114Z,79.92
2017-09-18T10:10:08.646Z,79.81
2017-09-18T10:12:40.802Z,80.42
2017-09-18T10:15:09.586Z,80.51
2017-09-18T10:17:42.041Z,79.82
2017-09-18T10:20:15.057Z,79.85
2017-09-18T10:22:48.030Z,80.28
2017-09-18T10:25:15.000Z,80.25
2017-09-18T10:27:47.085Z,80.47
2017-09-18T10:30:19.675Z,80.12
2017-09-18T10:32:46.496Z,80.01
2017-09-18T10:35:14.337Z,80.30
2017-09-18T10:37:41.345Z,80.57
2017-09-18T10:40:13.907Z,79.93
2017-09-18T10:42:45.898Z,80.28
2017-09-18T10:45:13.111Z,81.26
2017-09-18T10:47:46.208Z,80.46
2017-09-18T10:50:13.094Z,81.78
2017-09-18T10:52:45.236Z,80.94
2017-09-18T10:55:12.243Z,80.81
2017-09-18T10:57:39.424Z,82.21
2017-09-18T11:00:11.702Z,82.16
2017-09-18T11:02:38.553Z,81.94
2017-09-18T11:05:05.630Z,82.74
2017-09-18T11:07:32.692Z,82.32
2017-09-18T11:10:05.615Z,82.75
2017-09-18T11:12:37.690Z,83.59
2017-09-18T11:15:04.635Z,84.57
2017-09-18T11:17:31.847Z,84.48
2017-09-18T11:20:03.869Z,84.92
2017-09-18T11:22:30.977Z,84.33
2017-09-18T11:24:58.822Z,83.65
2017-09-18T11:27:25.722Z,84.35
2017-09-18T11:29:55.539Z,84.44
2017-09-18T11:32:22.607Z,85.19
2017-09-18T11:34:49.519Z,86.12
2017-09-18T11:37:18.227Z,84.46
2017-09-18T11:39:45.809Z,85.24
2017-09-18T11:42:13.893Z,84.75
2017-09-18T11:44:41.026Z,83.71
2017-09-18T11:47:13.206Z,83.89
2017-09-18T11:49:41.205Z,84.63
2017-09-18T11:52:08.123Z,85.50
2017-09-18T11:54:35.097Z,85.55
2017-09-18T11:57:13.219Z,85.45
2017-09-18T11:59:40.277Z,85.24
2017-09-18T12:02:13.276Z,84.73
2017-09-18T12:04:40.648Z,84.80
2017-09-18T12:07:07.458Z,84.50
2017-09-18T12:09:39.803Z,86.71
2017-09-18T12:12:06.717Z,86.37
2017-09-18T12:14:34.462Z,84.89
2017-09-18T12:17:01.431Z,85.93
2017-09-18T12:19:29.618Z,84.14
2017-09-18T12:21:57.230Z,82.80
2017-09-18T12:24:27.953Z,84.68
2017-09-18T12:26:55.339Z,83.02
2017-09-18T12:29:27.961Z,84.01
2017-09-18T12:31:55.026Z,82.09
2017-09-18T12:34:27.853Z,82.32
2017-09-18T12:36:54.770Z,83.20
2017-09-18T12:39:23.339Z,81.99
2017-09-18T12:41:50.734Z,82.69
2017-09-18T12:44:17.556Z,80.59
2017-09-18T12:46:44.885Z,80.05
2017-09-18T12:49:13.117Z,79.99
2017-09-18T12:51:45.599Z,79.28
2017-09-18T12:54:12.494Z,80.69
2017-09-18T12:56:39.467Z,78.00
2017-09-18T12:59:07.231Z,78.47
2017-09-18T13:01:34.910Z,79.31
2017-09-18T13:04:02.654Z,78.84
2017-09-18T13:06:35.021Z,77.69
2017-09-18T13:09:05.692Z,77.77
2017-09-18T13:11:32.664Z,76.76
2017-09-18T13:14:02.674Z,77.67
2017-09-18T13:16:30.419Z,78.20
2017-09-18T13:19:01.411Z,77.97
2017-09-18T13:21:29.571Z,77.17
2017-09-18T13:23:56.599Z,77.73
2017-09-18T13:26:24.027Z,77.67
2017-09-18T13:28:56.956Z,77.25
2017-09-18T13:31:24.037Z,78.06
2017-09-18T13:33:51.083Z,75.80
2017-09-18T13:36:23.498Z,74.57
2017-09-18T13:38:51.280Z,72.24
2017-09-18T13:41:23.890Z,73.78
2017-09-18T13:43:55.046Z,73.72
2017-09-18T13:46:22.500Z,72.72
2017-09-18T13:48:49.628Z,72.91
2017-09-18T13:51:17.428Z,72.45
2017-09-18T13:53:45.260Z,71.88
2017-09-18T13:56:21.328Z,72.39
2017-09-18T13:58:49.224Z,72.98
2017-09-18T14:01:16.294Z,72.79
2017-09-18T14:03:50.556Z,73.03
2017-09-18T14:06:23.527Z,73.51
2017-09-18T14:08:51.991Z,73.08
2017-09-18T14:11:20.589Z,73.93
2017-09-18T14:13:48.117Z,73.82
2017-09-18T14:16:15.873Z,73.25
2017-09-18T14:18:42.802Z,73.44
2017-09-18T14:21:09.852Z,74.23
2017-09-18T14:23:38.162Z,74.34
2017-09-18T14:26:10.307Z,75.08
2017-09-18T14:28:37.293Z,74.39
2017-09-18T14:31:05.301Z,74.76
2017-09-18T14:33:37.567Z,74.97
2017-09-18T14:36:06.828Z,75.63
2017-09-18T14:38:33.929Z,75.07
2017-09-18T14:41:02.150Z,75.26
2017-09-18T14:43:34.392Z,74.76
2017-09-18T14:46:02.274Z,74.79
2017-09-18T14:48:31.267Z,74.76
2017-09-18T14:50:58.155Z,74.45
2017-09-18T14:53:25.098Z,75.71
2017-09-18T14:55:52.835Z,74.61
2017-09-18T14:58:26.150Z,78.76
2017-09-18T15:00:58.553Z,78.24
2017-09-18T15:03:30.136Z,78.18
2017-09-18T15:05:57.112Z,79.23
2017-09-18T15:08:24.203Z,79.49
2017-09-18T15:10:52.231Z,81.39
2017-09-18T15:13:19.174Z,77.81
2017-09-18T15:15:46.867Z,77.31
2017-09-18T15:18:15.091Z,77.66
2017-09-18T15:20:42.026Z,77.52
2017-09-18T15:23:09.983Z,79.00
2017-09-18T15:25:38.164Z,78.89
2017-09-18T15:28:06.837Z,78.01
2017-09-18T15:30:34.082Z,78.00
2017-09-18T15:33:01.136Z,80.52
2017-09-18T15:35:28.467Z,85.20
2017-09-18T15:38:07.646Z,83.08
2017-09-18T15:40:41.843Z,82.24
2017-09-18T15:43:09.599Z,84.42
2017-09-18T15:45:36.762Z,86.28
2017-09-18T15:48:09.771Z,83.13
2017-09-18T15:50:36.712Z,85.83
2017-09-18T15:53:03.972Z,84.26
2017-09-18T15:55:36.970Z,81.86
2017-09-18T15:58:05.590Z,81.54
2017-09-18T16:00:32.486Z,81.53
2017-09-18T16:02:59.356Z,82.40
2017-09-18T16:05:32.390Z,83.57
2017-09-18T16:08:00.042Z,83.79
2017-09-18T16:10:26.903Z,82.76
2017-09-18T16:12:54.824Z,84.45
2017-09-18T16:15:34.604Z,82.79
2017-09-18T16:18:02.264Z,83.58
2017-09-18T16:20:30.133Z,81.88
2017-09-18T16:23:02.777Z,81.77
2017-09-18T16:25:35.704Z,81.81
2017-09-18T16:28:02.858Z,82.06
2017-09-18T16:30:29.655Z,82.77
2017-09-18T16:32:56.558Z,82.50
2017-09-18T16:35:29.655Z,82.62
2017-09-18T16:38:03.522Z,82.54
2017-09-18T16:40:31.270Z,83.27
2017-09-18T16:42:59.264Z,82.60
2017-09-18T16:45:27.518Z,83.73
2017-09-18T16:48:00.223Z,82.78
2017-09-18T16:50:31.788Z,82.44
2017-09-18T16:53:02.863Z,84.47
2017-09-18T17:08:25.453Z,86.33
2017-09-18T17:10:53.071Z,84.69
2017-09-18T17:13:19.907Z,84.29
2017-09-18T17:15:46.711Z,84.73
2017-09-18T17:18:13.540Z,86.88
2017-09-18T17:20:40.408Z,85.92
2017-09-18T17:23:07.277Z,86.22
2017-09-18T17:25:34.132Z,84.71
2017-09-18T17:28:00.973Z,84.39
2017-09-18T17:30:27.825Z,83.43
2017-09-18T17:32:55.388Z,84.41
2017-09-18T17:35:22.247Z,85.03
2017-09-18T17:37:49.097Z,84.13
2017-09-18T17:40:15.973Z,84.02
2017-09-18T17:42:43.643Z,83.67
2017-09-18T17:45:10.477Z,82.89
2017-09-18T17:47:37.329Z,83.80
2017-09-18T17:50:04.225Z,85.40
2017-09-18T17:52:33.283Z,85.69
2017-09-18T17:55:00.262Z,87.95
2017-09-18T17:57:27.154Z,89.48
2017-09-18T17:59:54.046Z,85.64
2017-09-18T18:02:22.505Z,84.82
2017-09-18T18:04:49.396Z,86.02
2017-09-18T18:07:16.307Z,85.14
2017-09-18T18:09:43.123Z,85.92
2017-09-18T18:12:10.845Z,84.98
2017-09-18T18:14:37.743Z,84.30
2017-09-18T18:17:04.673Z,87.23
2017-09-18T18:19:31.657Z,84.88
2017-09-18T18:21:58.585Z,84.50
2017-09-18T18:24:25.512Z,84.33
2017-09-18T18:26:52.388Z,84.86
2017-09-18T18:29:21.145Z,87.08
2017-09-18T18:31:48.788Z,88.21
2017-09-18T18:34:16.055Z,85.71
2017-09-18T18:36:43.931Z,84.80
2017-09-18T18:39:12.440Z,85.68
2017-09-18T18:41:41.531Z,85.91
2017-09-18T18:44:09.393Z,86.76
2017-09-18T18:46:38.206Z,85.75
2017-09-18T18:49:05.159Z,85.58
2017-09-18T18:51:32.982Z,84.75
2017-09-18T18:54:00.509Z,84.93
2017-09-18T18:56:27.444Z,86.20
2017-09-18T18:58:54.339Z,87.11
2017-09-18T19:01:21.762Z,88.12
2017-09-18T19:03:48.788Z,87.38
2017-09-18T19:06:18.418Z,86.06
2017-09-18T19:08:46.992Z,87.62
2017-09-18T19:11:15.597Z,86.28
2017-09-18T19:13:45.110Z,87.76
2017-09-18T19:16:12.855Z,87.81
2017-09-18T19:18:41.054Z,87.35
2017-09-18T19:21:09.322Z,86.30
2017-09-18T19:23:37.690Z,85.38
2017-09-18T19:26:06.913Z,85.70
2017-09-18T19:28:35.683Z,85.31
2017-09-18T19:31:03.021Z,86.48
2017-09-18T19:33:30.077Z,86.94
2017-09-18T19:35:56.980Z,87.06
2017-09-18T19:38:25.093Z,87.99
2017-09-18T19:40:52.865Z,88.69
2017-09-18T19:43:19.823Z,88.20
2017-09-18T19:45:46.852Z,86.43
2017-09-18T19:48:15.800Z,87.48
2017-09-18T19:50:42.723Z,86.67
2017-09-18T19:53:10.326Z,86.05
2017-09-18T19:55:38.059Z,89.27
2017-09-18T19:58:05.673Z,87.14
2017-09-18T20:00:32.625Z,89.30
2017-09-18T20:03:00.608Z,90.02
2017-09-18T20:05:27.827Z,87.00
2017-09-18T20:07:57.276Z,86.39
2017-09-18T20:10:24.685Z,89.20
2017-09-18T20:12:51.962Z,87.15
2017-09-18T20:15:20.097Z,89.88
2017-09-18T20:17:48.104Z,88.33
2017-09-18T20:20:15.016Z,88.53
2017-09-18T20:22:41.889Z,88.07
2017-09-18T20:25:08.761Z,86.99
2017-09-18T20:27:35.647Z,86.66
2017-09-18T20:30:02.664Z,87.83
2017-09-18T20:32:31.488Z,86.57
2017-09-18T20:34:59.203Z,87.68
2017-09-18T20:37:26.034Z,87.95
2017-09-18T20:39:52.859Z,87.77
2017-09-18T20:42:20.430Z,89.28
2017-09-18T20:44:48.028Z,89.01
2017-09-18T20:47:14.841Z,89.89
2017-09-18T20:49:41.706Z,91.28
2017-09-18T20:52:08.642Z,88.92
2017-09-18T20:54:36.236Z,87.76
2017-09-18T20:57:03.295Z,88.58
2017-09-18T20:59:30.144Z,87.88
2017-09-18T21:01:57.469Z,89.06
2017-09-18T21:04:24.324Z,90.74
2017-09-18T21:06:51.937Z,87.54
2017-09-18T21:09:19.357Z,86.85
2017-09-18T21:11:47.957Z,86.96
2017-09-18T21:14:15.213Z,86.62
2017-09-18T21:16:42.070Z,86.83
2017-09-18T21:19:08.918Z,87.15
2017-09-18T21:21:36.298Z,89.61
2017-09-18T21:24:03.145Z,87.57
2017-09-18T21:26:30.308Z,87.79
2017-09-18T21:28:57.110Z,88.89
2017-09-18T21:31:23.925Z,89.86
2017-09-18T21:33:50.796Z,90.22
2017-09-18T21:36:17.662Z,92.18
2017-09-18T21:38:45.223Z,91.36
2017-09-18T21:41:12.099Z,89.02
2017-09-18T21:43:38.969Z,87.90
2017-09-18T21:46:05.867Z,87.48
2017-09-18T21:48:32.748Z,88.53
2017-09-18T21:51:00.007Z,90.26
2017-09-18T21:53:26.894Z,90.74
2017-09-18T21:55:54.483Z,87.83
2017-09-18T21:58:21.736Z,87.79
2017-09-18T22:00:49.515Z,88.08
2017-09-18T22:03:18.194Z,88.72
2017-09-18T22:05:49.456Z,90.26
2017-09-18T22:08:18.822Z,89.98
2017-09-18T22:10:48.061Z,88.73
2017-09-18T22:13:19.055Z,88.46
2017-09-18T22:15:48.824Z,88.18
2017-09-18T22:28:10.744Z,87.50
2017-09-18T22:30:37.580Z,89.49
2017-09-18T22:33:05.058Z,90.19
2017-09-18T22:35:31.905Z,89.75
2017-09-18T22:38:00.577Z,88.67
2017-09-18T22:40:28.230Z,91.83
2017-09-18T22:42:56.778Z,90.19
2017-09-18T22:45:23.676Z,89.96
2017-09-18T22:47:52.926Z,88.06
2017-09-18T22:50:19.874Z,90.31
2017-09-18T22:52:46.670Z,88.86
2017-09-18T22:55:14.220Z,88.00
2017-09-18T22:57:41.091Z,87.58
2017-09-18T23:00:07.930Z,87.31
2017-09-18T23:02:34.787Z,87.81
2017-09-18T23:05:01.665Z,87.54
2017-09-18T23:07:28.520Z,87.40
2017-09-18T23:09:55.338Z,90.16
2017-09-18T23:12:22.226Z,91.06
2017-09-18T23:14:49.051Z,90.08
2017-09-18T23:17:16.710Z,89.39
2017-09-18T23:19:43.553Z,88.20
2017-09-18T23:22:10.426Z,89.67
2017-09-18T23:24:37.307Z,89.27
2017-09-18T23:27:04.871Z,88.00
2017-09-18T23:29:32.490Z,87.97
2017-09-18T23:31:59.459Z,88.03
2017-09-18T23:34:26.325Z,88.17
2017-09-18T23:36:53.307Z,88.16
2017-09-18T23:39:20.097Z,88.70
2017-09-18T23:41:47.246Z,87.93
2017-09-18T23:44:14.098Z,89.34
2017-09-18T23:46:40.955Z,88.77
2017-09-18T23:49:07.810Z,89.79
2017-09-18T23:51:34.694Z,88.92
2017-09-18T23:54:01.554Z,88.27
2017-09-18T23:56:28.423Z,88.61
2017-09-18T23:58:55.294Z,87.95
